sensor_id;sensor_type;location;lat;lon;timestamp;pressure;altitude;pressure_sealevel;temperature;humidity
70009;BME280;59542;37.950;-122.338;2022-07-10T00:00:44;101836.56;;;22.59;51.46
70009;BME280;59542;37.950;-122.338;2022-07-10T00:03:10;101847.16;;;22.18;52.16
70009;BME280;59542;37.950;-122.338;2022-07-10T00:05:36;101837.16;;;22.02;52.61
70009;BME280;59542;37.950;-122.338;2022-07-10T00:08:03;101835.84;;;22.04;52.96
70009;BME280;59542;37.950;-122.338;2022-07-10T00:10:29;101845.75;;;21.88;53.18
70009;BME280;59542;37.950;-122.338;2022-07-10T00:12:56;101841.78;;;21.74;53.89
70009;BME280;59542;37.950;-122.338;2022-07-10T00:15:23;101832.03;;;21.78;53.12
70009;BME280;59542;37.950;-122.338;2022-07-10T00:17:49;101829.97;;;21.42;54.05
70009;BME280;59542;37.950;-122.338;2022-07-10T00:20:16;101840.31;;;21.40;54.09
70009;BME280;59542;37.950;-122.338;2022-07-10T00:22:42;101846.94;;;21.27;55.03
70009;BME280;59542;37.950;-122.338;2022-07-10T00:25:12;101846.09;;;21.26;54.92
70009;BME280;59542;37.950;-122.338;2022-07-10T00:27:39;101837.47;;;21.13;54.88
70009;BME280;59542;37.950;-122.338;2022-07-10T00:30:08;101837.53;;;21.34;54.85
70009;BME280;59542;37.950;-122.338;2022-07-10T00:32:34;101832.25;;;21.28;54.40
70009;BME280;59542;37.950;-122.338;2022-07-10T00:35:01;101830.94;;;21.30;54.81
70009;BME280;59542;37.950;-122.338;2022-07-10T00:37:28;101813.94;;;21.23;54.52
70009;BME280;59542;37.950;-122.338;2022-07-10T00:39:54;101823.13;;;21.17;54.66
70009;BME280;59542;37.950;-122.338;2022-07-10T00:42:20;101827.59;;;21.06;54.53
70009;BME280;59542;37.950;-122.338;2022-07-10T00:44:47;101824.63;;;21.08;56.37
70009;BME280;59542;37.950;-122.338;2022-07-10T00:47:13;101829.94;;;21.20;57.27
70009;BME280;59542;37.950;-122.338;2022-07-10T00:49:43;101816.72;;;21.28;56.21
70009;BME280;59542;37.950;-122.338;2022-07-10T00:52:13;101811.78;;;21.25;56.05
70009;BME280;59542;37.950;-122.338;2022-07-10T00:54:43;101807.72;;;21.28;54.57
70009;BME280;59542;37.950;-122.338;2022-07-10T00:57:10;101813.00;;;21.34;54.63
70009;BME280;59542;37.950;-122.338;2022-07-10T00:59:37;101815.56;;;21.24;54.91
70009;BME280;59542;37.950;-122.338;2022-07-10T01:02:05;101816.72;;;21.06;56.17
70009;BME280;59542;37.950;-122.338;2022-07-10T01:04:32;101814.94;;;21.17;55.84
70009;BME280;59542;37.950;-122.338;2022-07-10T01:06:59;101811.16;;;21.18;55.21
70009;BME280;59542;37.950;-122.338;2022-07-10T01:09:26;101806.66;;;21.07;54.91
70009;BME280;59542;37.950;-122.338;2022-07-10T01:11:55;101801.00;;;20.92;56.34
70009;BME280;59542;37.950;-122.338;2022-07-10T01:14:22;101796.44;;;21.19;54.84
70009;BME280;59542;37.950;-122.338;2022-07-10T01:16:49;101788.03;;;21.21;55.19
70009;BME280;59542;37.950;-122.338;2022-07-10T01:19:15;101793.03;;;21.07;55.23
70009;BME280;59542;37.950;-122.338;2022-07-10T01:21:41;101795.06;;;20.95;55.48
70009;BME280;59542;37.950;-122.338;2022-07-10T01:24:09;101792.94;;;20.80;55.30
70009;BME280;59542;37.950;-122.338;2022-07-10T01:26:36;101792.28;;;20.90;56.04
70009;BME280;59542;37.950;-122.338;2022-07-10T01:29:06;101790.88;;;20.87;56.07
70009;BME280;59542;37.950;-122.338;2022-07-10T01:31:33;101796.44;;;20.97;56.02
70009;BME280;59542;37.950;-122.338;2022-07-10T01:34:01;101797.19;;;20.93;55.74
70009;BME280;59542;37.950;-122.338;2022-07-10T01:36:30;101797.31;;;20.81;55.90
70009;BME280;59542;37.950;-122.338;2022-07-10T01:38:58;101797.09;;;20.82;56.57
70009;BME280;59542;37.950;-122.338;2022-07-10T01:41:25;101785.34;;;20.82;55.72
70009;BME280;59542;37.950;-122.338;2022-07-10T01:43:52;101780.94;;;20.59;56.63
70009;BME280;59542;37.950;-122.338;2022-07-10T01:46:19;101795.06;;;20.39;56.87
70009;BME280;59542;37.950;-122.338;2022-07-10T01:48:45;101788.53;;;20.23;57.21
70009;BME280;59542;37.950;-122.338;2022-07-10T01:51:12;101782.19;;;20.35;56.88
70009;BME280;59542;37.950;-122.338;2022-07-10T01:53:40;101788.88;;;20.44;57.06
70009;BME280;59542;37.950;-122.338;2022-07-10T01:56:08;101789.44;;;20.63;57.17
70009;BME280;59542;37.950;-122.338;2022-07-10T01:58:35;101789.03;;;20.93;55.93
70009;BME280;59542;37.950;-122.338;2022-07-10T02:01:03;101787.72;;;20.95;54.69
70009;BME280;59542;37.950;-122.338;2022-07-10T02:03:31;101790.38;;;20.90;55.04
70009;BME280;59542;37.950;-122.338;2022-07-10T02:06:16;101793.03;;;21.07;54.83
70009;BME280;59542;37.950;-122.338;2022-07-10T02:08:42;101781.66;;;21.10;55.02
70009;BME280;59542;37.950;-122.338;2022-07-10T02:11:08;101778.69;;;21.12;54.73
70009;BME280;59542;37.950;-122.338;2022-07-10T02:13:35;101786.09;;;21.38;54.57
70009;BME280;59542;37.950;-122.338;2022-07-10T02:16:01;101791.59;;;21.43;54.12
70009;BME280;59542;37.950;-122.338;2022-07-10T02:18:28;101784.16;;;21.60;53.02
70009;BME280;59542;37.950;-122.338;2022-07-10T02:20:54;101786.94;;;21.98;52.61
70009;BME280;59542;37.950;-122.338;2022-07-10T02:23:21;101785.63;;;22.00;51.38
70009;BME280;59542;37.950;-122.338;2022-07-10T02:25:47;101783.94;;;22.26;50.90
70009;BME280;59542;37.950;-122.338;2022-07-10T02:28:16;101782.09;;;22.37;50.52
70009;BME280;59542;37.950;-122.338;2022-07-10T02:30:42;101775.59;;;22.38;50.73
70009;BME280;59542;37.950;-122.338;2022-07-10T02:33:08;101770.84;;;22.23;50.63
70009;BME280;59542;37.950;-122.338;2022-07-10T02:35:35;101775.25;;;22.29;50.70
70009;BME280;59542;37.950;-122.338;2022-07-10T02:38:01;101769.53;;;22.31;50.71
70009;BME280;59542;37.950;-122.338;2022-07-10T02:40:27;101772.41;;;22.14;50.60
70009;BME280;59542;37.950;-122.338;2022-07-10T02:42:53;101782.94;;;22.05;51.44
70009;BME280;59542;37.950;-122.338;2022-07-10T02:45:20;101782.81;;;21.90;51.65
70009;BME280;59542;37.950;-122.338;2022-07-10T02:47:46;101774.94;;;21.94;51.98
70009;BME280;59542;37.950;-122.338;2022-07-10T02:50:12;101769.72;;;21.60;52.46
70009;BME280;59542;37.950;-122.338;2022-07-10T02:52:38;101780.06;;;21.36;53.04
70009;BME280;59542;37.950;-122.338;2022-07-10T02:55:05;101768.63;;;21.34;52.58
70009;BME280;59542;37.950;-122.338;2022-07-10T02:57:31;101770.00;;;21.37;52.69
70009;BME280;59542;37.950;-122.338;2022-07-10T02:59:57;101767.31;;;21.20;53.42
70009;BME280;59542;37.950;-122.338;2022-07-10T03:02:23;101770.44;;;20.85;54.15
70009;BME280;59542;37.950;-122.338;2022-07-10T03:04:50;101770.88;;;20.60;54.98
70009;BME280;59542;37.950;-122.338;2022-07-10T03:07:16;101766.63;;;20.47;55.35
70009;BME280;59542;37.950;-122.338;2022-07-10T03:09:42;101768.19;;;20.26;55.73
70009;BME280;59542;37.950;-122.338;2022-07-10T03:12:08;101764.41;;;20.10;56.38
70009;BME280;59542;37.950;-122.338;2022-07-10T03:14:34;101769.09;;;19.98;56.31
70009;BME280;59542;37.950;-122.338;2022-07-10T03:17:01;101781.56;;;19.65;57.39
70009;BME280;59542;37.950;-122.338;2022-07-10T03:19:27;101775.06;;;19.38;58.12
70009;BME280;59542;37.950;-122.338;2022-07-10T03:21:53;101772.56;;;19.36;58.15
70009;BME280;59542;37.950;-122.338;2022-07-10T03:24:19;101777.25;;;19.12;59.30
70009;BME280;59542;37.950;-122.338;2022-07-10T03:26:46;101787.44;;;18.82;60.25
70009;BME280;59542;37.950;-122.338;2022-07-10T03:29:12;101783.44;;;18.72;61.18
70009;BME280;59542;37.950;-122.338;2022-07-10T03:31:38;101775.28;;;18.37;62.40
70009;BME280;59542;37.950;-122.338;2022-07-10T03:34:04;101775.03;;;18.15;62.64
70009;BME280;59542;37.950;-122.338;2022-07-10T03:36:30;101787.25;;;17.94;63.41
70009;BME280;59542;37.950;-122.338;2022-07-10T03:38:56;101792.16;;;17.86;63.76
70009;BME280;59542;37.950;-122.338;2022-07-10T03:41:23;101790.63;;;17.78;63.88
70009;BME280;59542;37.950;-122.338;2022-07-10T03:43:49;101786.94;;;17.54;65.01
70009;BME280;59542;37.950;-122.338;2022-07-10T03:46:15;101785.53;;;17.52;65.33
70009;BME280;59542;37.950;-122.338;2022-07-10T03:48:41;101780.47;;;17.44;65.50
70009;BME280;59542;37.950;-122.338;2022-07-10T03:51:08;101785.50;;;17.40;65.57
70009;BME280;59542;37.950;-122.338;2022-07-10T03:53:34;101773.25;;;17.19;66.34
70009;BME280;59542;37.950;-122.338;2022-07-10T03:56:00;101791.75;;;17.04;66.76
70009;BME280;59542;37.950;-122.338;2022-07-10T03:58:26;101791.25;;;16.95;67.19
70009;BME280;59542;37.950;-122.338;2022-07-10T04:00:52;101791.09;;;16.90;67.50
70009;BME280;59542;37.950;-122.338;2022-07-10T04:03:19;101781.00;;;16.79;67.85
70009;BME280;59542;37.950;-122.338;2022-07-10T04:05:46;101786.81;;;16.57;68.57
70009;BME280;59542;37.950;-122.338;2022-07-10T04:08:12;101782.97;;;16.72;68.42
70009;BME280;59542;37.950;-122.338;2022-07-10T04:10:38;101787.91;;;16.75;68.06
70009;BME280;59542;37.950;-122.338;2022-07-10T04:13:04;101788.03;;;16.61;68.58
70009;BME280;59542;37.950;-122.338;2022-07-10T04:15:31;101791.88;;;16.47;68.81
70009;BME280;59542;37.950;-122.338;2022-07-10T04:17:57;101791.97;;;16.41;69.55
70009;BME280;59542;37.950;-122.338;2022-07-10T04:20:23;101795.06;;;16.44;69.14
70009;BME280;59542;37.950;-122.338;2022-07-10T04:22:50;101798.25;;;16.34;69.78
70009;BME280;59542;37.950;-122.338;2022-07-10T04:25:16;101796.69;;;16.45;69.37
70009;BME280;59542;37.950;-122.338;2022-07-10T04:27:42;101798.19;;;16.41;69.29
70009;BME280;59542;37.950;-122.338;2022-07-10T04:30:09;101795.22;;;16.24;69.90
70009;BME280;59542;37.950;-122.338;2022-07-10T04:32:35;101803.16;;;16.19;69.80
70009;BME280;59542;37.950;-122.338;2022-07-10T04:35:03;101808.94;;;16.23;69.86
70009;BME280;59542;37.950;-122.338;2022-07-10T04:37:29;101808.66;;;16.31;70.03
70009;BME280;59542;37.950;-122.338;2022-07-10T04:39:55;101804.84;;;16.14;70.63
70009;BME280;59542;37.950;-122.338;2022-07-10T04:42:21;101804.03;;;16.13;70.63
70009;BME280;59542;37.950;-122.338;2022-07-10T04:44:48;101807.31;;;16.15;70.37
70009;BME280;59542;37.950;-122.338;2022-07-10T04:47:14;101806.72;;;16.13;70.20
70009;BME280;59542;37.950;-122.338;2022-07-10T04:49:40;101806.38;;;16.03;70.47
70009;BME280;59542;37.950;-122.338;2022-07-10T04:52:06;101808.06;;;15.97;70.57
70009;BME280;59542;37.950;-122.338;2022-07-10T04:54:33;101803.97;;;15.95;70.81
70009;BME280;59542;37.950;-122.338;2022-07-10T04:56:59;101806.59;;;16.01;70.48
70009;BME280;59542;37.950;-122.338;2022-07-10T04:59:26;101805.38;;;15.97;70.78
70009;BME280;59542;37.950;-122.338;2022-07-10T05:01:52;101804.25;;;16.12;70.22
70009;BME280;59542;37.950;-122.338;2022-07-10T05:04:18;101797.91;;;15.99;71.19
70009;BME280;59542;37.950;-122.338;2022-07-10T05:06:45;101793.97;;;15.95;71.31
70009;BME280;59542;37.950;-122.338;2022-07-10T05:09:11;101793.56;;;15.92;71.52
70009;BME280;59542;37.950;-122.338;2022-07-10T05:11:37;101788.28;;;15.78;72.13
70009;BME280;59542;37.950;-122.338;2022-07-10T05:14:03;101794.03;;;15.89;71.86
70009;BME280;59542;37.950;-122.338;2022-07-10T05:16:29;101796.28;;;15.92;71.61
70009;BME280;59542;37.950;-122.338;2022-07-10T05:18:55;101797.03;;;15.74;72.10
70009;BME280;59542;37.950;-122.338;2022-07-10T05:21:22;101800.91;;;15.84;71.95
70009;BME280;59542;37.950;-122.338;2022-07-10T05:23:48;101808.56;;;15.88;71.60
70009;BME280;59542;37.950;-122.338;2022-07-10T05:26:14;101811.47;;;15.86;71.43
70009;BME280;59542;37.950;-122.338;2022-07-10T05:28:40;101806.53;;;15.83;71.38
70009;BME280;59542;37.950;-122.338;2022-07-10T05:31:07;101811.13;;;15.76;71.37
70009;BME280;59542;37.950;-122.338;2022-07-10T05:33:33;101806.06;;;15.86;71.28
70009;BME280;59542;37.950;-122.338;2022-07-10T05:35:59;101808.06;;;15.97;71.10
70009;BME280;59542;37.950;-122.338;2022-07-10T05:38:26;101813.47;;;15.97;71.35
70009;BME280;59542;37.950;-122.338;2022-07-10T05:40:52;101805.72;;;16.07;71.00
70009;BME280;59542;37.950;-122.338;2022-07-10T05:43:19;101805.56;;;16.02;71.42
70009;BME280;59542;37.950;-122.338;2022-07-10T05:45:46;101803.31;;;15.93;71.80
70009;BME280;59542;37.950;-122.338;2022-07-10T05:48:12;101807.66;;;16.00;71.66
70009;BME280;59542;37.950;-122.338;2022-07-10T05:50:38;101810.97;;;16.02;71.57
70009;BME280;59542;37.950;-122.338;2022-07-10T05:53:05;101809.03;;;16.09;71.49
70009;BME280;59542;37.950;-122.338;2022-07-10T05:55:31;101811.13;;;16.07;71.56
70009;BME280;59542;37.950;-122.338;2022-07-10T05:57:57;101805.91;;;16.13;71.70
70009;BME280;59542;37.950;-122.338;2022-07-10T06:00:24;101803.06;;;16.01;72.25
70009;BME280;59542;37.950;-122.338;2022-07-10T06:02:51;101806.31;;;16.16;71.56
70009;BME280;59542;37.950;-122.338;2022-07-10T06:05:17;101807.66;;;16.00;71.90
70009;BME280;59542;37.950;-122.338;2022-07-10T06:07:43;101811.13;;;16.07;71.68
70009;BME280;59542;37.950;-122.338;2022-07-10T06:10:10;101810.53;;;16.05;71.48
70009;BME280;59542;37.950;-122.338;2022-07-10T06:12:36;101806.94;;;16.12;71.35
70009;BME280;59542;37.950;-122.338;2022-07-10T06:15:03;101803.44;;;16.04;70.98
70009;BME280;59542;37.950;-122.338;2022-07-10T06:17:30;101802.81;;;16.09;71.53
70009;BME280;59542;37.950;-122.338;2022-07-10T06:19:56;101803.03;;;16.07;71.21
70009;BME280;59542;37.950;-122.338;2022-07-10T06:22:23;101791.81;;;16.04;71.19
70009;BME280;59542;37.950;-122.338;2022-07-10T06:25:06;101797.91;;;15.99;71.35
70009;BME280;59542;37.950;-122.338;2022-07-10T06:27:34;101790.00;;;15.98;71.34
70009;BME280;59542;37.950;-122.338;2022-07-10T06:30:01;101788.00;;;15.87;71.86
70009;BME280;59542;37.950;-122.338;2022-07-10T06:32:27;101784.47;;;15.86;71.93
70009;BME280;59542;37.950;-122.338;2022-07-10T06:34:54;101774.72;;;15.85;71.95
70009;BME280;59542;37.950;-122.338;2022-07-10T06:37:21;101785.31;;;15.87;71.62
70009;BME280;59542;37.950;-122.338;2022-07-10T06:39:48;101796.16;;;15.80;72.00
70009;BME280;59542;37.950;-122.338;2022-07-10T06:42:15;101794.50;;;15.79;71.79
70009;BME280;59542;37.950;-122.338;2022-07-10T06:44:45;101805.72;;;15.76;72.18
70009;BME280;59542;37.950;-122.338;2022-07-10T06:47:13;101799.06;;;15.78;72.22
70009;BME280;59542;37.950;-122.338;2022-07-10T06:49:58;101798.44;;;15.76;72.29
70009;BME280;59542;37.950;-122.338;2022-07-10T06:52:25;101797.88;;;15.68;72.28
70009;BME280;59542;37.950;-122.338;2022-07-10T06:54:53;101797.28;;;15.66;72.36
70009;BME280;59542;37.950;-122.338;2022-07-10T06:57:19;101792.91;;;15.65;72.38
70009;BME280;59542;37.950;-122.338;2022-07-10T06:59:46;101794.38;;;15.54;72.66
70009;BME280;59542;37.950;-122.338;2022-07-10T07:02:12;101793.75;;;15.58;72.90
70009;BME280;59542;37.950;-122.338;2022-07-10T07:04:38;101790.25;;;15.51;72.85
70009;BME280;59542;37.950;-122.338;2022-07-10T07:07:04;101793.38;;;15.48;73.05
70009;BME280;59542;37.950;-122.338;2022-07-10T07:09:31;101798.78;;;15.48;72.96
70009;BME280;59542;37.950;-122.338;2022-07-10T07:11:57;101804.63;;;15.45;72.93
70009;BME280;59542;37.950;-122.338;2022-07-10T07:14:23;101804.28;;;15.28;74.28
70009;BME280;59542;37.950;-122.338;2022-07-10T07:16:49;101793.25;;;15.30;74.91
70009;BME280;59542;37.950;-122.338;2022-07-10T07:19:35;101793.50;;;15.28;74.94
70009;BME280;59542;37.950;-122.338;2022-07-10T07:22:21;101799.25;;;15.32;74.80
70009;BME280;59542;37.950;-122.338;2022-07-10T07:25:07;101799.31;;;15.19;75.49
70009;BME280;59542;37.950;-122.338;2022-07-10T07:27:35;101794.19;;;15.11;75.43
70009;BME280;59542;37.950;-122.338;2022-07-10T07:30:09;101795.59;;;15.20;74.97
70009;BME280;59542;37.950;-122.338;2022-07-10T07:32:45;101784.41;;;15.16;75.08
70009;BME280;59542;37.950;-122.338;2022-07-10T07:35:14;101792.69;;;15.21;74.40
70009;BME280;59542;37.950;-122.338;2022-07-10T07:37:42;101789.38;;;15.19;74.54
70009;BME280;59542;37.950;-122.338;2022-07-10T07:40:10;101796.84;;;15.17;74.55
70009;BME280;59542;37.950;-122.338;2022-07-10T07:42:37;101798.09;;;15.15;75.02
70009;BME280;59542;37.950;-122.338;2022-07-10T07:45:04;101798.53;;;15.12;75.04
70009;BME280;59542;37.950;-122.338;2022-07-10T07:47:41;101798.97;;;15.02;75.61
70009;BME280;59542;37.950;-122.338;2022-07-10T07:50:08;101790.84;;;15.09;75.18
70009;BME280;59542;37.950;-122.338;2022-07-10T07:52:35;101793.34;;;15.03;75.46
70009;BME280;59542;37.950;-122.338;2022-07-10T07:55:01;101790.91;;;14.95;75.89
70009;BME280;59542;37.950;-122.338;2022-07-10T07:57:28;101793.16;;;14.98;75.90
70009;BME280;59542;37.950;-122.338;2022-07-10T07:59:54;101782.81;;;14.95;75.95
70009;BME280;59542;37.950;-122.338;2022-07-10T08:02:20;101786.97;;;14.91;76.21
70009;BME280;59542;37.950;-122.338;2022-07-10T08:04:48;101783.47;;;14.84;76.12
70009;BME280;59542;37.950;-122.338;2022-07-10T08:07:14;101790.91;;;14.82;76.36
70009;BME280;59542;37.950;-122.338;2022-07-10T08:09:40;101789.06;;;14.76;76.74
70009;BME280;59542;37.950;-122.338;2022-07-10T08:12:06;101792.63;;;14.63;77.08
70009;BME280;59542;37.950;-122.338;2022-07-10T08:14:33;101796.56;;;14.61;77.87
70009;BME280;59542;37.950;-122.338;2022-07-10T08:16:59;101809.41;;;14.65;77.77
70009;BME280;59542;37.950;-122.338;2022-07-10T08:19:25;101803.41;;;14.57;78.11
70009;BME280;59542;37.950;-122.338;2022-07-10T08:21:51;101792.84;;;14.62;77.81
70009;BME280;59542;37.950;-122.338;2022-07-10T08:24:17;101790.97;;;14.62;77.93
70009;BME280;59542;37.950;-122.338;2022-07-10T08:26:44;101778.31;;;14.63;77.90
70009;BME280;59542;37.950;-122.338;2022-07-10T08:29:10;101775.22;;;14.59;78.29
70009;BME280;59542;37.950;-122.338;2022-07-10T08:31:36;101777.31;;;14.50;78.69
70009;BME280;59542;37.950;-122.338;2022-07-10T08:34:05;101775.03;;;14.61;78.36
70009;BME280;59542;37.950;-122.338;2022-07-10T08:36:31;101785.81;;;14.47;78.93
70009;BME280;59542;37.950;-122.338;2022-07-10T08:38:57;101783.75;;;14.49;78.54
70009;BME280;59542;37.950;-122.338;2022-07-10T08:41:26;101784.97;;;14.53;78.83
70009;BME280;59542;37.950;-122.338;2022-07-10T08:43:52;101784.97;;;14.53;78.71
70009;BME280;59542;37.950;-122.338;2022-07-10T08:46:18;101778.34;;;14.49;79.24
70009;BME280;59542;37.950;-122.338;2022-07-10T08:48:49;101782.88;;;14.42;79.32
70009;BME280;59542;37.950;-122.338;2022-07-10T08:51:52;101777.31;;;14.57;79.00
70009;BME280;59542;37.950;-122.338;2022-07-10T08:54:22;101781.44;;;14.60;78.83
70009;BME280;59542;37.950;-122.338;2022-07-10T08:56:50;101772.72;;;14.64;78.75
70009;BME280;59542;37.950;-122.338;2022-07-10T08:59:17;101772.13;;;14.62;78.64
70009;BME280;59542;37.950;-122.338;2022-07-10T09:01:44;101765.47;;;14.65;78.77
70009;BME280;59542;37.950;-122.338;2022-07-10T09:04:21;101768.78;;;14.60;79.18
70009;BME280;59542;37.950;-122.338;2022-07-10T09:06:48;101773.75;;;14.70;79.10
70009;BME280;59542;37.950;-122.338;2022-07-10T09:09:14;101768.75;;;14.80;78.71
70009;BME280;59542;37.950;-122.338;2022-07-10T09:11:41;101774.78;;;14.69;79.47
70009;BME280;59542;37.950;-122.338;2022-07-10T09:14:13;101758.41;;;14.64;79.57
70009;BME280;59542;37.950;-122.338;2022-07-10T09:16:43;101760.69;;;14.73;79.05
70009;BME280;59542;37.950;-122.338;2022-07-10T09:19:27;101764.00;;;14.75;79.01
70009;BME280;59542;37.950;-122.338;2022-07-10T09:22:06;101757.13;;;14.86;78.94
70009;BME280;59542;37.950;-122.338;2022-07-10T09:24:46;101758.16;;;14.85;79.04
70009;BME280;59542;37.950;-122.338;2022-07-10T09:27:14;101755.47;;;14.85;79.68
70009;BME280;59542;37.950;-122.338;2022-07-10T09:29:52;101757.09;;;14.93;78.89
70009;BME280;59542;37.950;-122.338;2022-07-10T09:32:23;101758.94;;;14.99;79.53
70009;BME280;59542;37.950;-122.338;2022-07-10T09:34:51;101757.50;;;14.96;79.38
70009;BME280;59542;37.950;-122.338;2022-07-10T09:37:39;101757.09;;;14.99;79.71
70009;BME280;59542;37.950;-122.338;2022-07-10T09:40:06;101750.47;;;14.95;79.82
70009;BME280;59542;37.950;-122.338;2022-07-10T09:42:41;101750.03;;;15.05;79.56
70009;BME280;59542;37.950;-122.338;2022-07-10T09:47:58;101751.03;;;15.04;79.40
70009;BME280;59542;37.950;-122.338;2022-07-10T09:50:34;101752.28;;;15.08;78.82
70009;BME280;59542;37.950;-122.338;2022-07-10T09:53:04;101752.91;;;15.03;79.11
70009;BME280;59542;37.950;-122.338;2022-07-10T09:55:33;101750.00;;;15.12;78.88
70009;BME280;59542;37.950;-122.338;2022-07-10T09:58:05;101754.75;;;15.10;78.75
70009;BME280;59542;37.950;-122.338;2022-07-10T10:00:39;101758.09;;;15.12;78.62
70009;BME280;59542;37.950;-122.338;2022-07-10T10:03:12;101754.94;;;15.15;78.55
70009;BME280;59542;37.950;-122.338;2022-07-10T10:05:44;101750.41;;;15.09;78.82
70009;BME280;59542;37.950;-122.338;2022-07-10T10:08:21;101753.56;;;14.92;79.60
70009;BME280;59542;37.950;-122.338;2022-07-10T10:10:51;101760.63;;;15.00;79.15
70009;BME280;59542;37.950;-122.338;2022-07-10T10:13:23;101756.28;;;14.86;79.86
70009;BME280;59542;37.950;-122.338;2022-07-10T10:15:51;101757.09;;;14.99;79.28
70009;BME280;59542;37.950;-122.338;2022-07-10T10:18:22;101751.25;;;15.02;79.15
70009;BME280;59542;37.950;-122.338;2022-07-10T10:20:50;101745.03;;;15.02;78.68
70009;BME280;59542;37.950;-122.338;2022-07-10T10:23:21;101750.19;;;15.10;78.23
70009;BME280;59542;37.950;-122.338;2022-07-10T10:25:55;101746.66;;;15.10;78.58
70009;BME280;59542;37.950;-122.338;2022-07-10T10:28:24;101742.50;;;15.14;78.21
70009;BME280;59542;37.950;-122.338;2022-07-10T10:30:57;101750.19;;;15.17;77.80
70009;BME280;59542;37.950;-122.338;2022-07-10T10:36:00;101747.50;;;15.10;78.20
70009;BME280;59542;37.950;-122.338;2022-07-10T10:41:39;101744.03;;;14.96;78.89
70009;BME280;59542;37.950;-122.338;2022-07-10T10:46:38;101754.19;;;14.88;78.73
70009;BME280;59542;37.950;-122.338;2022-07-10T10:49:52;101754.63;;;14.91;78.66
70009;BME280;59542;37.950;-122.338;2022-07-10T10:52:20;101753.34;;;15.00;78.66
70009;BME280;59542;37.950;-122.338;2022-07-10T10:57:44;101749.22;;;14.91;78.24
70009;BME280;59542;37.950;-122.338;2022-07-10T11:00:13;101755.47;;;14.85;78.08
70009;BME280;59542;37.950;-122.338;2022-07-10T11:02:41;101752.78;;;14.85;78.28
70009;BME280;59542;37.950;-122.338;2022-07-10T11:15:31;101742.03;;;14.72;78.05
70009;BME280;59542;37.950;-122.338;2022-07-10T11:18:02;101743.06;;;14.71;77.95
70009;BME280;59542;37.950;-122.338;2022-07-10T11:20:35;101729.81;;;14.63;78.43
70009;BME280;59542;37.950;-122.338;2022-07-10T11:25:54;101738.50;;;14.65;79.06
70009;BME280;59542;37.950;-122.338;2022-07-10T11:28:50;101739.56;;;14.64;78.85
70009;BME280;59542;37.950;-122.338;2022-07-10T11:31:18;101744.38;;;14.55;79.49
70009;BME280;59542;37.950;-122.338;2022-07-10T11:33:46;101746.59;;;14.65;79.31
70009;BME280;59542;37.950;-122.338;2022-07-10T11:36:16;101739.72;;;14.75;78.70
70009;BME280;59542;37.950;-122.338;2022-07-10T11:38:43;101739.34;;;14.72;78.87
70009;BME280;59542;37.950;-122.338;2022-07-10T11:41:19;101735.38;;;14.74;79.10
70009;BME280;59542;37.950;-122.338;2022-07-10T11:43:54;101740.56;;;14.76;79.07
70009;BME280;59542;37.950;-122.338;2022-07-10T11:46:22;101748.22;;;14.79;78.85
70009;BME280;59542;37.950;-122.338;2022-07-10T11:48:51;101744.06;;;14.76;78.78
70009;BME280;59542;37.950;-122.338;2022-07-10T11:56:35;101740.38;;;14.64;78.90
70009;BME280;59542;37.950;-122.338;2022-07-10T11:59:02;101743.88;;;14.78;78.29
70009;BME280;59542;37.950;-122.338;2022-07-10T12:01:30;101751.97;;;14.78;77.25
70009;BME280;59542;37.950;-122.338;2022-07-10T12:04:02;101742.50;;;14.56;77.78
70009;BME280;59542;37.950;-122.338;2022-07-10T12:06:30;101746.19;;;14.55;78.24
70009;BME280;59542;37.950;-122.338;2022-07-10T12:09:02;101750.56;;;14.56;78.54
70009;BME280;59542;37.950;-122.338;2022-07-10T12:11:29;101745.59;;;14.52;79.22
70009;BME280;59542;37.950;-122.338;2022-07-10T12:14:15;101743.50;;;14.55;79.00
70009;BME280;59542;37.950;-122.338;2022-07-10T12:16:50;101753.03;;;14.64;78.82
70009;BME280;59542;37.950;-122.338;2022-07-10T12:19:25;101759.25;;;14.64;79.50
70009;BME280;59542;37.950;-122.338;2022-07-10T12:21:54;101754.28;;;14.61;79.28
70009;BME280;59542;37.950;-122.338;2022-07-10T12:24:21;101753.47;;;14.61;79.23
70009;BME280;59542;37.950;-122.338;2022-07-10T12:26:49;101752.00;;;14.65;79.50
70009;BME280;59542;37.950;-122.338;2022-07-10T12:29:25;101753.03;;;14.64;79.66
70009;BME280;59542;37.950;-122.338;2022-07-10T12:31:54;101749.50;;;14.70;79.57
70009;BME280;59542;37.950;-122.338;2022-07-10T12:34:39;101746.16;;;14.74;79.31
70009;BME280;59542;37.950;-122.338;2022-07-10T12:37:10;101752.22;;;14.63;79.66
70009;BME280;59542;37.950;-122.338;2022-07-10T12:40:06;101756.13;;;14.74;79.82
70009;BME280;59542;37.950;-122.338;2022-07-10T12:42:37;101752.00;;;14.65;80.00
70009;BME280;59542;37.950;-122.338;2022-07-10T12:45:12;101748.06;;;14.67;79.78
70009;BME280;59542;37.950;-122.338;2022-07-10T12:47:45;101753.44;;;14.67;79.96
70009;BME280;59542;37.950;-122.338;2022-07-10T12:50:13;101757.81;;;14.62;80.66
70009;BME280;59542;37.950;-122.338;2022-07-10T12:52:40;101758.00;;;14.67;80.42
70009;BME280;59542;37.950;-122.338;2022-07-10T12:55:14;101751.16;;;14.77;79.96
70009;BME280;59542;37.950;-122.338;2022-07-10T12:57:54;101754.22;;;14.81;79.72
70009;BME280;59542;37.950;-122.338;2022-07-10T13:00:33;101750.31;;;14.77;79.69